Time;durP1;ratioP1;P1;durP2;ratioP2;P2;SDS_P1;SDS_P2;PMS_P1;PMS_P2;Temp;Humidity;BMP_temperature;BMP_pressure;BME280_temperature;BME280_humidity;BME280_pressure;Samples;Min_cycle;Max_cycle;Signal;HPM_P1;HPM_P2
2021/11/09 00:02:24;;;;;;;23.90;15.57;;;8.40;94.80;;;;;;5066826;28;20185;-82
2021/11/09 00:04:54;;;;;;;29.67;15.40;;;8.40;95.60;;;;;;5082299;28;20212;-81
2021/11/09 00:09:59;;;;;;;31.73;15.57;;;8.50;96.10;;;;;;5065817;28;20228;-83
2021/11/09 00:12:35;;;;;;;29.27;15.43;;;8.40;96.10;;;;;;5037283;28;20266;-81
2021/11/09 00:15:03;;;;;;;27.73;14.90;;;8.50;95.80;;;;;;5055220;28;20252;-81
2021/11/09 00:17:29;;;;;;;26.40;14.73;;;8.40;95.60;;;;;;5056224;28;20161;-82
2021/11/09 00:19:55;;;;;;;29.33;15.93;;;8.40;96.10;;;;;;5055462;28;20227;-81
2021/11/09 00:22:22;;;;;;;26.97;14.27;;;8.60;95.30;;;;;;5056352;28;20193;-81
2021/11/09 00:24:49;;;;;;;26.27;14.23;;;8.70;93.80;;;;;;5075745;28;20179;-81
2021/11/09 00:27:15;;;;;;;32.23;15.47;;;8.70;92.90;;;;;;5075204;28;20180;-81
2021/11/09 00:29:41;;;;;;;30.80;15.63;;;8.80;90.30;;;;;;5056027;28;20212;-81
2021/11/09 00:32:08;;;;;;;28.23;15.60;;;8.80;88.90;;;;;;5075364;28;20172;-81
2021/11/09 00:34:34;;;;;;;29.13;16.50;;;8.60;90.30;;;;;;5052617;28;20177;-82
2021/11/09 00:37:00;;;;;;;27.47;15.07;;;8.30;91.90;;;;;;5055464;28;20165;-82
2021/11/09 00:39:26;;;;;;;24.13;13.57;;;8.10;94.50;;;;;;5040451;28;20181;-82
2021/11/09 00:41:52;;;;;;;23.00;13.30;;;8.10;95.80;;;;;;5075956;28;20548;-81
2021/11/09 00:44:18;;;;;;;29.60;14.90;;;8.10;96.50;;;;;;5075768;28;20566;-81
2021/11/09 00:46:44;;;;;;;24.93;13.97;;;8.00;96.80;;;;;;5075139;28;20265;-81
2021/11/09 00:49:10;;;;;;;30.13;14.53;;;7.90;97.40;;;;;;5074836;28;20758;-81
2021/11/09 00:51:36;;;;;;;33.93;14.93;;;7.80;97.80;;;;;;5055239;28;20185;-82
2021/11/09 00:54:03;;;;;;;31.10;14.40;;;7.80;98.30;;;;;;5055185;28;20245;-81
2021/11/09 00:56:30;;;;;;;27.77;13.33;;;7.80;98.40;;;;;;5035791;28;20177;-81
2021/11/09 00:58:57;;;;;;;27.13;13.27;;;7.90;98.50;;;;;;5054612;28;20546;-81
2021/11/09 01:01:23;;;;;;;27.20;14.40;;;8.00;98.30;;;;;;5070749;28;20649;-82
2021/11/09 01:03:49;;;;;;;31.03;14.20;;;8.20;97.90;;;;;;5058471;28;20183;-82
2021/11/09 01:06:16;;;;;;;29.33;13.43;;;8.00;97.50;;;;;;5077401;28;20168;-83
2021/11/09 01:08:42;;;;;;;26.37;12.50;;;7.90;97.20;;;;;;5042798;28;20181;-81
2021/11/09 01:11:08;;;;;;;26.20;13.30;;;7.90;97.30;;;;;;5054831;28;20648;-81
2021/11/09 01:13:33;;;;;;;24.23;13.70;;;7.90;97.90;;;;;;5037062;28;20254;-81
2021/11/09 01:15:59;;;;;;;26.30;14.17;;;7.80;97.80;;;;;;5054733;28;20840;-80
2021/11/09 01:18:29;;;;;;;24.37;12.33;;;7.60;98.10;;;;;;5067360;28;20176;-81
2021/11/09 01:20:56;;;;;;;23.83;13.87;;;7.60;98.50;;;;;;5073330;28;20172;-81
2021/11/09 01:23:23;;;;;;;29.83;14.63;;;7.60;98.40;;;;;;5079029;28;20172;-82
2021/11/09 01:25:49;;;;;;;29.50;14.57;;;7.70;98.70;;;;;;5074626;28;20249;-81
2021/11/09 01:28:16;;;;;;;29.03;14.73;;;7.70;98.10;;;;;;5073440;28;20250;-81
2021/11/09 01:30:43;;;;;;;29.50;13.90;;;7.60;98.00;;;;;;5073580;28;20216;-81
2021/11/09 01:33:09;;;;;;;25.83;14.27;;;7.40;98.60;;;;;;5056027;28;20225;-81
2021/11/09 01:35:35;;;;;;;33.87;14.50;;;7.40;99.20;;;;;;5056201;28;20181;-81
2021/11/09 01:38:02;;;;;;;32.90;15.27;;;7.40;99.60;;;;;;5065526;28;20173;-81
2021/11/09 01:40:28;;;;;;;27.10;13.23;;;7.50;99.60;;;;;;5070213;28;20168;-82
2021/11/09 01:42:55;;;;;;;33.53;15.37;;;7.50;98.90;;;;;;5073814;28;20513;-80
2021/11/09 01:45:22;;;;;;;26.63;14.63;;;7.60;98.90;;;;;;5073974;28;20168;-82
2021/11/09 01:47:50;;;;;;;28.57;14.47;;;7.50;98.50;;;;;;5073517;28;20523;-82
2021/11/09 01:50:19;;;;;;;26.70;15.37;;;7.60;99.10;;;;;;5061949;28;20215;-82
2021/11/09 01:52:45;;;;;;;31.33;15.53;;;7.70;98.50;;;;;;5053703;28;20157;-82
2021/11/09 01:55:16;;;;;;;29.80;14.97;;;7.80;97.60;;;;;;5052940;28;20223;-84
2021/11/09 01:57:43;;;;;;;29.33;15.00;;;7.70;97.10;;;;;;5056789;28;20177;-83
2021/11/09 02:00:17;;;;;;;30.03;13.87;;;7.60;97.80;;;;;;5085982;28;20230;-80
2021/11/09 02:02:44;;;;;;;28.83;14.30;;;7.60;97.60;;;;;;5070238;28;20179;-81
2021/11/09 02:05:12;;;;;;;26.70;14.47;;;7.60;97.40;;;;;;5081447;28;20172;-82
2021/11/09 02:07:47;;;;;;;30.33;15.23;;;7.60;97.70;;;;;;5064374;28;20187;-82
2021/11/09 02:10:15;;;;;;;27.03;15.27;;;8.00;96.70;;;;;;5053752;28;20338;-82
2021/11/09 02:12:42;;;;;;;31.50;15.17;;;7.80;95.80;;;;;;5053888;28;20291;-80
2021/11/09 02:15:09;;;;;;;26.37;13.90;;;7.80;96.00;;;;;;5036093;28;20177;-81
2021/11/09 02:17:41;;;;;;;28.70;15.50;;;7.60;96.50;;;;;;5060521;28;20509;-82
2021/11/09 02:20:08;;;;;;;25.10;14.13;;;7.50;97.70;;;;;;5055253;28;20590;-81
2021/11/09 02:22:34;;;;;;;31.30;16.27;;;7.40;98.10;;;;;;5077285;28;20561;-81
2021/11/09 02:25:06;;;;;;;23.90;14.13;;;7.40;98.30;;;;;;5054560;28;20184;-83
2021/11/09 02:27:32;;;;;;;27.83;13.47;;;7.40;98.80;;;;;;5072361;28;20207;-82
2021/11/09 02:29:58;;;;;;;29.33;14.77;;;7.60;98.50;;;;;;5074619;28;20218;-82
2021/11/09 02:32:24;;;;;;;26.10;14.50;;;7.70;97.10;;;;;;5063519;28;20208;-81
2021/11/09 02:34:50;;;;;;;26.13;14.57;;;7.80;96.40;;;;;;5077680;28;20203;-81
2021/11/09 02:37:17;;;;;;;29.67;14.10;;;7.50;96.90;;;;;;5070036;28;20529;-82
2021/11/09 02:39:44;;;;;;;26.47;14.37;;;7.40;97.70;;;;;;5060008;28;20168;-81
2021/11/09 02:42:14;;;;;;;24.93;14.97;;;7.30;98.50;;;;;;5073208;28;20172;-82
2021/11/09 02:44:59;;;;;;;25.63;13.57;;;7.20;99.20;;;;;;5072574;28;20176;-81
2021/11/09 02:47:28;;;;;;;33.30;14.87;;;7.40;99.50;;;;;;5068786;28;20581;-81
2021/11/09 02:52:21;;;;;;;28.93;14.00;;;7.40;99.70;;;;;;5053393;28;20175;-81
2021/11/09 02:54:49;;;;;;;25.23;14.00;;;7.60;99.40;;;;;;5053209;28;20161;-81
2021/11/09 02:57:31;;;;;;;28.70;14.30;;;7.70;98.00;;;;;;5055549;28;20181;-82
2021/11/09 03:10:07;;;;;;;29.17;13.23;;;7.30;97.60;;;;;;5068151;28;20621;-82
2021/11/09 03:12:36;;;;;;;29.80;12.80;;;7.20;98.30;;;;;;5053266;28;20198;-82
2021/11/09 03:15:06;;;;;;;24.40;12.73;;;7.20;99.10;;;;;;5052500;28;20620;-83
2021/11/09 03:20:35;;;;;;;23.67;13.10;;;7.30;99.70;;;;;;5051072;28;20188;-82
2021/11/09 03:47:16;;;;;;;32.07;14.23;;;7.80;95.60;;;;;;5075616;28;20192;-81
2021/11/09 03:49:45;;;;;;;25.13;13.33;;;7.60;95.80;;;;;;5065105;28;20205;-81
2021/11/09 03:52:28;;;;;;;28.53;12.70;;;7.50;96.70;;;;;;5066021;28;20164;-81
2021/11/09 03:55:03;;;;;;;25.53;12.57;;;7.50;97.20;;;;;;5070858;28;20199;-81
2021/11/09 03:57:43;;;;;;;27.67;12.63;;;7.50;97.50;;;;;;5081050;28;20160;-81
2021/11/09 04:00:28;;;;;;;28.20;12.97;;;7.50;97.80;;;;;;5083861;28;20672;-81
2021/11/09 04:03:18;;;;;;;29.63;13.37;;;7.50;97.80;;;;;;5079705;28;20649;-82
2021/11/09 04:05:45;;;;;;;28.67;12.77;;;7.40;97.90;;;;;;5068644;28;20256;-82
2021/11/09 04:21:43;;;;;;;32.67;14.37;;;7.90;94.20;;;;;;5062386;28;20271;-83
2021/11/09 04:41:07;;;;;;;26.50;12.70;;;7.60;97.40;;;;;;5012757;28;20205;-82
2021/11/09 05:10:12;;;;;;;24.20;11.17;;;7.00;99.70;;;;;;5069621;28;20566;-82
2021/11/09 05:12:38;;;;;;;26.27;11.00;;;7.10;99.90;;;;;;5077856;28;20228;-82
2021/11/09 05:15:06;;;;;;;24.73;9.83;;;7.20;99.70;;;;;;5080879;28;20198;-81
2021/11/09 05:17:31;;;;;;;24.07;10.67;;;7.10;99.70;;;;;;5072076;28;20639;-82
2021/11/09 05:19:57;;;;;;;34.87;11.47;;;7.10;99.90;;;;;;5074936;28;20246;-81
2021/11/09 05:22:23;;;;;;;22.60;10.40;;;7.00;99.90;;;;;;5078660;28;20302;-82
2021/11/09 05:24:49;;;;;;;28.43;11.13;;;7.10;99.90;;;;;;5074424;28;20240;-80
2021/11/09 05:27:16;;;;;;;19.33;10.50;;;6.90;99.90;;;;;;5076472;28;20200;-81
2021/11/09 05:29:44;;;;;;;25.17;10.63;;;7.20;99.90;;;;;;5075662;28;20204;-81
2021/11/09 05:32:10;;;;;;;22.27;10.90;;;7.20;99.60;;;;;;5058152;28;20179;-82
2021/11/09 05:34:35;;;;;;;26.73;11.70;;;7.40;98.60;;;;;;5075361;28;20175;-82
2021/11/09 05:37:02;;;;;;;27.23;11.73;;;7.40;96.90;;;;;;5076997;28;20153;-82
2021/11/09 05:39:49;;;;;;;24.17;11.27;;;7.40;95.40;;;;;;5073671;28;20326;-81
2021/11/09 05:42:16;;;;;;;25.40;11.07;;;7.20;95.50;;;;;;5056291;28;20233;-83
2021/11/09 05:44:43;;;;;;;27.23;11.10;;;6.90;97.20;;;;;;5056025;28;20182;-81
2021/11/09 05:47:09;;;;;;;25.40;11.87;;;6.80;98.70;;;;;;5073696;28;20648;-81
2021/11/09 05:49:34;;;;;;;27.37;11.43;;;6.70;99.60;;;;;;5063591;28;20261;-80
2021/11/09 05:52:01;;;;;;;24.43;11.53;;;6.70;99.90;;;;;;5035392;28;20216;-81
2021/11/09 05:54:28;;;;;;;25.90;11.13;;;6.70;99.90;;;;;;5058012;28;20627;-82
2021/11/09 05:56:54;;;;;;;23.43;11.37;;;6.70;99.90;;;;;;5073593;28;20215;-83
2021/11/09 05:59:20;;;;;;;22.97;9.93;;;6.60;99.90;;;;;;5058407;28;20188;-82
2021/11/09 06:01:47;;;;;;;20.33;9.77;;;6.70;99.90;;;;;;5057067;28;20625;-82
2021/11/09 06:04:13;;;;;;;17.73;9.97;;;6.70;99.90;;;;;;5057505;28;20175;-84
2021/11/09 06:06:39;;;;;;;24.63;10.07;;;6.80;99.90;;;;;;5061799;28;20204;-83
2021/11/09 06:09:05;;;;;;;21.93;10.30;;;6.90;99.90;;;;;;5072143;28;20294;-82
2021/11/09 06:11:31;;;;;;;23.63;11.00;;;6.80;99.90;;;;;;5073754;28;20203;-83
2021/11/09 06:13:56;;;;;;;21.60;9.60;;;6.80;99.90;;;;;;5068238;28;20189;-83
2021/11/09 06:16:22;;;;;;;19.70;9.27;;;6.70;99.90;;;;;;5053630;28;20203;-83
2021/11/09 06:18:48;;;;;;;23.77;10.37;;;6.70;99.90;;;;;;5035120;28;20181;-82
2021/11/09 06:21:14;;;;;;;26.43;10.97;;;6.90;99.90;;;;;;5053843;28;20173;-82
2021/11/09 06:23:40;;;;;;;22.47;10.83;;;7.00;99.90;;;;;;5068088;28;20187;-81
2021/11/09 06:26:06;;;;;;;23.40;11.37;;;7.10;99.90;;;;;;5039459;28;20206;-81
2021/11/09 06:28:32;;;;;;;19.97;10.93;;;7.00;99.90;;;;;;5052843;28;20177;-80
2021/11/09 06:30:58;;;;;;;18.90;9.77;;;7.20;99.90;;;;;;5055864;28;20951;-81
2021/11/09 06:33:24;;;;;;;27.63;10.83;;;7.00;99.90;;;;;;5052634;28;20180;-79
2021/11/09 06:35:51;;;;;;;23.90;10.10;;;7.00;99.90;;;;;;5070598;28;20184;-80
2021/11/09 06:38:18;;;;;;;20.90;9.47;;;7.00;99.90;;;;;;5052954;28;20659;-79
2021/11/09 06:40:44;;;;;;;24.13;10.30;;;6.90;99.90;;;;;;5058063;28;20168;-81
2021/11/09 06:43:10;;;;;;;26.23;10.90;;;7.00;99.90;;;;;;5057034;28;20195;-83
2021/11/09 06:45:37;;;;;;;19.43;8.83;;;7.10;99.90;;;;;;5046715;28;20200;-83
2021/11/09 06:48:04;;;;;;;27.37;10.30;;;7.10;99.90;;;;;;5056629;28;20192;-83
2021/11/09 06:50:30;;;;;;;27.83;10.40;;;7.30;99.70;;;;;;5071737;28;20663;-82
2021/11/09 06:52:58;;;;;;;30.00;10.90;;;7.40;99.10;;;;;;5056741;28;20172;-86
2021/11/09 06:55:24;;;;;;;28.57;11.20;;;7.60;97.50;;;;;;5054940;28;20632;-82
2021/11/09 06:57:50;;;;;;;30.90;11.60;;;7.60;96.10;;;;;;5054339;28;20185;-82
2021/11/09 07:00:19;;;;;;;31.93;11.30;;;7.30;96.90;;;;;;5053870;28;20181;-82
2021/11/09 07:02:45;;;;;;;29.80;10.33;;;7.20;98.20;;;;;;5064360;28;20168;-84
2021/11/09 07:05:12;;;;;;;25.67;10.23;;;7.10;98.90;;;;;;5066163;28;20172;-79
2021/11/09 07:07:40;;;;;;;28.27;10.57;;;7.20;99.50;;;;;;5058429;28;20164;-81
2021/11/09 07:10:07;;;;;;;27.73;10.93;;;7.30;99.60;;;;;;5044610;28;20606;-83
2021/11/09 07:12:34;;;;;;;32.40;11.57;;;7.60;98.80;;;;;;5060605;28;20287;-81
2021/11/09 07:15:00;;;;;;;30.23;11.60;;;7.70;97.40;;;;;;5059025;28;20173;-85
2021/11/09 07:17:26;;;;;;;31.17;11.77;;;7.60;96.70;;;;;;5054593;28;20695;-84
2021/11/09 07:19:53;;;;;;;30.03;11.00;;;7.60;96.40;;;;;;5047149;28;20322;-82
2021/11/09 07:22:21;;;;;;;30.13;11.60;;;7.60;96.10;;;;;;5079876;28;20251;-82
2021/11/09 07:24:47;;;;;;;28.87;11.60;;;7.60;96.60;;;;;;5086906;28;20198;-82
2021/11/09 07:27:13;;;;;;;33.47;13.33;;;7.60;96.10;;;;;;5097574;28;20176;-81
2021/11/09 07:29:47;;;;;;;35.40;12.97;;;7.50;96.70;;;;;;5095734;28;20241;-80
2021/11/09 07:32:13;;;;;;;34.63;11.07;;;7.50;97.40;;;;;;5089236;28;20167;-78
2021/11/09 07:34:39;;;;;;;24.40;10.53;;;7.50;97.60;;;;;;5069200;28;20219;-78
2021/11/09 07:37:06;;;;;;;27.43;10.20;;;7.40;98.20;;;;;;5056250;28;20173;-80
2021/11/09 07:39:32;;;;;;;23.37;11.10;;;7.60;98.30;;;;;;5037519;28;20192;-82
2021/11/09 07:41:59;;;;;;;22.50;10.40;;;7.50;98.30;;;;;;5055239;28;20165;-81
2021/11/09 07:44:29;;;;;;;22.53;9.47;;;7.40;98.40;;;;;;5055638;28;20230;-83
2021/11/09 07:46:56;;;;;;;23.93;9.10;;;7.50;98.70;;;;;;5061615;28;20268;-79
2021/11/09 07:49:23;;;;;;;27.20;9.10;;;7.50;98.90;;;;;;5080731;28;20232;-79
2021/11/09 07:51:51;;;;;;;22.87;8.60;;;7.40;99.10;;;;;;5081791;28;20217;-80
2021/11/09 07:54:21;;;;;;;24.50;8.90;;;7.60;99.50;;;;;;5079473;28;20175;-80
2021/11/09 07:56:47;;;;;;;22.97;7.37;;;7.50;99.70;;;;;;5061284;28;20204;-80
2021/11/09 07:59:25;;;;;;;22.93;8.90;;;7.60;99.50;;;;;;5078102;28;20211;-81
2021/11/09 08:02:45;;;;;;;24.63;8.47;;;7.60;99.50;;;;;;5079765;28;20168;-81
2021/11/09 08:04:48;;;;;;;24.60;7.87;;;7.70;99.30;;;;;;5055275;28;20668;-81
2021/11/09 08:07:25;;;;;;;18.10;8.60;;;8.10;99.00;;;;;;5067480;28;20175;-78
2021/11/09 08:09:51;;;;;;;20.00;9.00;;;8.20;98.00;;;;;;5055334;28;20261;-79
2021/11/09 08:12:17;;;;;;;19.73;8.57;;;8.10;96.90;;;;;;5076297;28;20177;-79
2021/11/09 08:14:43;;;;;;;19.13;8.57;;;8.40;96.30;;;;;;5067255;28;20180;-80
2021/11/09 08:17:09;;;;;;;21.63;7.37;;;8.50;95.30;;;;;;5061530;28;20223;-79
2021/11/09 08:19:35;;;;;;;20.30;8.27;;;8.50;92.60;;;;;;5060556;28;20484;-81
2021/11/09 08:22:03;;;;;;;19.27;7.90;;;8.60;91.10;;;;;;5051650;28;20202;-80
2021/11/09 08:24:30;;;;;;;23.27;8.27;;;8.80;89.70;;;;;;5080824;28;20231;-81
2021/11/09 08:27:02;;;;;;;20.67;8.13;;;8.70;86.30;;;;;;5057403;28;20203;-81
2021/11/09 08:29:28;;;;;;;17.17;8.17;;;8.80;87.50;;;;;;5080563;28;20348;-81
2021/11/09 08:31:56;;;;;;;21.47;8.40;;;8.80;84.10;;;;;;5054392;28;20189;-80
2021/11/09 08:34:24;;;;;;;21.03;8.43;;;9.00;81.20;;;;;;5063867;28;20158;-81
2021/11/09 08:36:50;;;;;;;17.83;7.90;;;9.00;75.00;;;;;;5062675;28;20169;-81
2021/11/09 08:39:22;;;;;;;18.63;7.43;;;9.00;77.40;;;;;;5063301;28;20172;-79
2021/11/09 08:44:21;;;;;;;15.67;7.90;;;9.10;77.50;;;;;;5065268;28;20561;-82
2021/11/09 08:46:57;;;;;;;23.37;8.40;;;9.20;74.00;;;;;;5073690;28;20177;-80
2021/11/09 08:49:30;;;;;;;21.07;8.43;;;9.20;76.10;;;;;;5074897;28;20208;-80
2021/11/09 08:51:59;;;;;;;25.23;8.97;;;9.20;76.10;;;;;;5080990;28;20226;-82
2021/11/09 08:54:33;;;;;;;20.17;7.60;;;9.50;71.50;;;;;;5064847;28;20173;-83
2021/11/09 09:05:04;;;;;;;21.87;8.87;;;9.70;61.40;;;;;;5056889;28;20683;-81
2021/11/09 09:07:30;;;;;;;19.27;7.50;;;9.50;63.10;;;;;;5057104;28;20231;-81
2021/11/09 09:09:57;;;;;;;21.97;7.90;;;9.50;66.60;;;;;;5065811;28;20189;-81
2021/11/09 09:12:26;;;;;;;19.93;8.20;;;9.50;69.80;;;;;;5077831;28;20168;-79
2021/11/09 09:14:54;;;;;;;20.60;8.50;;;9.50;70.60;;;;;;5082051;28;20631;-79
2021/11/09 09:17:21;;;;;;;20.23;6.97;;;9.50;70.80;;;;;;5078329;28;20173;-80
2021/11/09 09:19:58;;;;;;;14.17;7.80;;;9.50;71.00;;;;;;5059198;28;20173;-82
2021/11/09 09:22:29;;;;;;;17.97;7.43;;;9.60;71.40;;;;;;5062812;28;20179;-81
2021/11/09 09:27:34;;;;;;;16.77;7.23;;;10.00;69.20;;;;;;5069341;28;20215;-80
2021/11/09 09:56:54;;;;;;;20.43;6.83;;;10.60;45.70;;;;;;5054425;28;20172;-79
2021/11/09 09:59:25;;;;;;;17.53;6.50;;;10.60;38.20;;;;;;5053473;28;20235;-82
2021/11/09 10:02:15;;;;;;;16.03;6.03;;;10.60;34.30;;;;;;5055763;28;20165;-81
2021/11/09 10:04:47;;;;;;;15.90;6.53;;;10.80;33.90;;;;;;5055105;28;20181;-81
2021/11/09 10:07:14;;;;;;;16.10;6.50;;;10.70;26.70;;;;;;5036257;28;20193;-81
2021/11/09 10:09:44;;;;;;;18.00;6.47;;;10.90;24.20;;;;;;5036140;28;20632;-81
2021/11/09 10:12:35;;;;;;;19.47;7.20;;;10.90;23.70;;;;;;5055119;28;20177;-80
2021/11/09 10:15:17;;;;;;;16.20;6.87;;;11.00;21.40;;;;;;5053443;28;20180;-82
2021/11/09 10:17:49;;;;;;;22.30;7.17;;;11.30;13.30;;;;;;5053783;28;20169;-82
2021/11/09 10:20:18;;;;;;;19.53;8.57;;;11.30;6.90;;;;;;5066214;28;20210;-81
2021/11/09 10:22:47;;;;;;;24.47;7.67;;;11.40;3.70;;;;;;5062660;28;20223;-80
2021/11/09 10:25:16;;;;;;;18.40;7.60;;;11.40;3.10;;;;;;5073448;28;20203;-80
2021/11/09 10:27:45;;;;;;;19.37;7.50;;;11.50;1.00;;;;;;5073248;28;20175;-81
2021/11/09 10:30:18;;;;;;;22.90;8.20;;;11.50;1.00;;;;;;5073161;28;20207;-82
2021/11/09 10:32:46;;;;;;;21.27;7.23;;;11.40;1.00;;;;;;5073453;28;20165;-80
2021/11/09 10:35:13;;;;;;;17.17;7.03;;;11.40;2.00;;;;;;5073456;28;20175;-81
2021/11/09 10:37:45;;;;;;;16.93;6.30;;;11.40;1.00;;;;;;5074072;28;20164;-80
2021/11/09 10:40:26;;;;;;;16.33;6.60;;;11.50;1.00;;;;;;5074714;28;20176;-82
2021/11/09 10:42:59;;;;;;;14.80;6.67;;;11.60;1.00;;;;;;5059377;28;20169;-81
2021/11/09 10:45:28;;;;;;;21.77;6.87;;;11.60;1.00;;;;;;5053549;28;20161;-82
2021/11/09 10:48:01;;;;;;;17.30;6.13;;;11.80;1.00;;;;;;5048089;28;20220;-83
2021/11/09 10:50:29;;;;;;;16.67;6.07;;;11.80;1.00;;;;;;5036388;28;20260;-81
2021/11/09 10:53:19;;;;;;;16.07;5.93;;;11.90;1.00;;;;;;5051062;28;20232;-81
2021/11/09 11:04:33;;;;;;;17.27;6.00;;;11.80;1.00;;;;;;5058820;28;20195;-81
2021/11/09 11:07:06;;;;;;;20.80;6.33;;;12.10;1.00;;;;;;5044081;28;20192;-82
2021/11/09 11:09:32;;;;;;;15.23;6.50;;;11.90;1.00;;;;;;5066105;28;20200;-78
2021/11/09 11:12:05;;;;;;;21.53;6.47;;;12.00;1.00;;;;;;5053161;28;20164;-79
2021/11/09 11:14:32;;;;;;;17.53;5.93;;;11.90;1.00;;;;;;5070925;28;20233;-81
2021/11/09 11:17:06;;;;;;;16.73;6.27;;;11.90;1.00;;;;;;5060394;28;20176;-79
2021/11/09 11:19:36;;;;;;;16.53;6.07;;;12.00;1.00;;;;;;5073943;28;20526;-81
2021/11/09 11:22:13;;;;;;;17.23;6.10;;;12.10;1.00;;;;;;5046442;28;20172;-82
2021/11/09 11:24:40;;;;;;;16.13;5.80;;;12.30;1.00;;;;;;5053352;28;20246;-81
2021/11/09 11:27:12;;;;;;;18.47;5.40;;;12.40;1.00;;;;;;5053160;28;20189;-82
2021/11/09 11:29:39;;;;;;;18.13;5.63;;;12.40;1.00;;;;;;5053172;28;20310;-81
2021/11/09 11:32:08;;;;;;;20.87;5.57;;;12.50;1.00;;;;;;5058962;28;20328;-83
2021/11/09 11:34:34;;;;;;;15.00;4.83;;;12.60;1.00;;;;;;5054296;28;20183;-82
2021/11/09 11:37:00;;;;;;;15.40;5.00;;;12.70;1.00;;;;;;5054432;28;20241;-82
2021/11/09 11:39:29;;;;;;;16.63;5.57;;;12.90;1.00;;;;;;5057351;28;20169;-83
2021/11/09 11:41:58;;;;;;;16.90;5.60;;;12.70;1.00;;;;;;5057290;28;20227;-81
2021/11/09 11:44:25;;;;;;;16.47;5.07;;;12.70;1.00;;;;;;5074776;28;20262;-83
2021/11/09 11:46:59;;;;;;;19.83;6.07;;;12.80;1.00;;;;;;5071078;28;20629;-81
2021/11/09 11:49:28;;;;;;;19.13;5.67;;;12.80;1.00;;;;;;5068177;28;20207;-81
2021/11/09 11:51:57;;;;;;;17.40;5.20;;;12.80;1.00;;;;;;5078641;28;20187;-82
2021/11/09 11:54:45;;;;;;;18.87;5.40;;;12.90;1.00;;;;;;5058275;28;20165;-83
2021/11/09 11:57:25;;;;;;;17.43;5.57;;;12.90;1.00;;;;;;5040682;28;20202;-83
2021/11/09 11:59:51;;;;;;;14.40;5.43;;;13.00;1.00;;;;;;5060222;28;20223;-80
2021/11/09 12:02:33;;;;;;;17.33;5.50;;;12.90;1.00;;;;;;5059744;28;20168;-80
2021/11/09 12:04:59;;;;;;;18.93;6.20;;;13.20;1.00;;;;;;5058371;28;20322;-81
2021/11/09 12:07:51;;;;;;;20.30;6.67;;;13.20;1.00;;;;;;5060749;28;20223;-83
2021/11/09 12:10:18;;;;;;;21.27;5.77;;;13.30;1.00;;;;;;5057555;28;20206;-82
2021/11/09 12:13:02;;;;;;;14.57;5.30;;;13.40;1.00;;;;;;5057126;28;20665;-81
2021/11/09 12:15:56;;;;;;;15.80;6.03;;;13.40;1.00;;;;;;5038769;28;20231;-81
2021/11/09 12:18:28;;;;;;;18.40;5.20;;;13.50;1.00;;;;;;5038598;28;20544;-83
2021/11/09 12:21:18;;;;;;;19.80;5.57;;;13.40;1.00;;;;;;5056583;28;20204;-80
2021/11/09 12:24:18;;;;;;;15.10;5.83;;;13.40;1.00;;;;;;5066505;28;20234;-79
2021/11/09 12:26:44;;;;;;;13.77;4.93;;;13.60;1.00;;;;;;5074448;28;20192;-83
2021/11/09 12:29:41;;;;;;;16.23;4.73;;;13.60;1.00;;;;;;5076076;28;20182;-82
2021/11/09 12:32:30;;;;;;;15.53;5.20;;;13.50;1.00;;;;;;5076503;28;20211;-81
2021/11/09 12:35:03;;;;;;;14.20;4.97;;;13.50;1.00;;;;;;5058818;28;20259;-82
2021/11/09 12:37:42;;;;;;;14.93;4.43;;;13.40;1.00;;;;;;5075861;28;20247;-82
2021/11/09 12:40:27;;;;;;;15.00;4.53;;;13.20;1.00;;;;;;5088535;28;20174;-82
2021/11/09 12:43:12;;;;;;;16.87;5.43;;;13.30;1.00;;;;;;5092067;28;20191;-81
2021/11/09 12:45:41;;;;;;;17.57;4.67;;;13.40;1.00;;;;;;5091121;28;20171;-80
2021/11/09 12:48:10;;;;;;;18.60;5.30;;;13.50;1.00;;;;;;5077925;28;20177;-80
2021/11/09 12:50:37;;;;;;;13.27;4.80;;;13.50;1.00;;;;;;5060712;28;20293;-82
2021/11/09 12:53:11;;;;;;;14.67;5.20;;;13.60;1.00;;;;;;5064699;28;20165;-82
2021/11/09 12:55:41;;;;;;;16.00;6.17;;;13.70;1.00;;;;;;5041645;28;20177;-81
2021/11/09 12:58:20;;;;;;;18.97;6.20;;;13.60;1.00;;;;;;5071058;28;20157;-81
2021/11/09 13:04:01;;;;;;;16.80;5.27;;;13.60;1.00;;;;;;5060216;28;20633;-81
2021/11/09 13:06:58;;;;;;;15.97;5.13;;;13.80;1.00;;;;;;5055718;28;20173;-81
2021/11/09 13:09:34;;;;;;;15.37;5.23;;;14.00;1.00;;;;;;5055275;28;20198;-82
2021/11/09 13:12:11;;;;;;;16.97;6.17;;;14.50;1.00;;;;;;5057871;28;20170;-84
2021/11/09 13:14:44;;;;;;;19.03;6.00;;;14.60;1.00;;;;;;5076522;28;20247;-80
2021/11/09 13:17:22;;;;;;;12.90;4.30;;;14.60;1.00;;;;;;5059576;28;20209;-80
2021/11/09 13:20:14;;;;;;;18.90;5.63;;;14.30;1.00;;;;;;5079039;28;20151;-82
2021/11/09 13:23:03;;;;;;;18.43;5.33;;;14.60;1.00;;;;;;5070070;28;20173;-83
2021/11/09 13:25:41;;;;;;;18.33;5.50;;;14.70;99.90;;;;;;5071919;28;20196;-80
2021/11/09 13:28:19;;;;;;;16.50;6.10;;;14.60;99.90;;;;;;5076495;28;20173;-81
2021/11/09 13:30:58;;;;;;;17.20;5.63;;;14.40;1.00;;;;;;5078027;28;20213;-83
2021/11/09 13:33:26;;;;;;;22.37;7.10;;;14.30;1.00;;;;;;5076669;28;20207;-82
2021/11/09 13:35:52;;;;;;;18.57;5.43;;;14.00;1.00;;;;;;5079280;28;20178;-80
2021/11/09 13:38:37;;;;;;;19.73;5.90;;;14.10;1.00;;;;;;5077826;28;20162;-82
2021/11/09 13:41:05;;;;;;;17.37;5.60;;;14.20;1.00;;;;;;5076360;28;20185;-81
2021/11/09 13:43:42;;;;;;;16.40;6.23;;;14.30;1.00;;;;;;5057645;28;20544;-80
2021/11/09 13:46:14;;;;;;;16.67;5.33;;;14.40;1.00;;;;;;5079084;28;20201;-82
2021/11/09 13:48:43;;;;;;;15.90;5.60;;;14.50;1.00;;;;;;5078176;28;20155;-81
2021/11/09 13:51:15;;;;;;;16.50;5.97;;;14.50;1.00;;;;;;5041252;28;20230;-82
2021/11/09 13:53:48;;;;;;;18.33;6.17;;;14.40;1.00;;;;;;5055709;28;20260;-80
2021/11/09 13:56:19;;;;;;;17.87;5.47;;;14.30;1.00;;;;;;5056007;28;20190;-81
2021/11/09 13:59:01;;;;;;;17.00;5.30;;;14.40;99.90;;;;;;5054153;28;20269;-81
2021/11/09 14:01:37;;;;;;;17.87;5.53;;;14.30;99.90;;;;;;5071882;28;20209;-81
2021/11/09 14:06:56;;;;;;;14.00;5.47;;;14.50;99.90;;;;;;5074499;28;20228;-80
2021/11/09 14:12:47;;;;;;;18.47;6.33;;;14.50;99.90;;;;;;5057807;28;20181;-83
2021/11/09 14:17:46;;;;;;;17.37;6.20;;;14.60;99.90;;;;;;5065202;28;20182;-81
2021/11/09 14:20:18;;;;;;;14.30;6.83;;;14.50;99.90;;;;;;5078131;28;20196;-80
2021/11/09 14:22:46;;;;;;;24.50;6.83;;;14.40;99.90;;;;;;5076371;28;20196;-81
2021/11/09 14:25:16;;;;;;;16.20;6.67;;;14.50;99.90;;;;;;5077659;28;20180;-84
2021/11/09 14:27:46;;;;;;;17.17;6.47;;;14.70;99.90;;;;;;5056805;28;20182;-82
2021/11/09 14:30:18;;;;;;;16.53;6.73;;;14.70;99.90;;;;;;5077044;28;20261;-82
2021/11/09 14:32:49;;;;;;;17.70;6.70;;;14.60;99.90;;;;;;5075528;28;21067;-82
2021/11/09 14:35:23;;;;;;;16.87;7.20;;;14.70;99.90;;;;;;5075757;28;20619;-80
2021/11/09 14:38:03;;;;;;;19.20;7.40;;;14.80;99.90;;;;;;5063648;28;20176;-81
2021/11/09 14:40:34;;;;;;;19.10;7.30;;;14.70;99.90;;;;;;5074533;28;20231;-82
2021/11/09 14:43:29;;;;;;;19.63;8.00;;;14.70;99.90;;;;;;5072406;28;20178;-83
2021/11/09 14:46:11;;;;;;;20.50;8.20;;;14.80;99.90;;;;;;5073787;28;20222;-82
2021/11/09 14:53:56;;;;;;;18.93;7.47;;;15.70;1.00;;;;;;5065907;28;20169;-81
2021/11/09 14:56:32;;;;;;;19.20;7.67;;;15.80;1.00;;;;;;5079807;28;20253;-81
2021/11/09 14:59:00;;;;;;;17.27;7.57;;;16.00;1.00;;;;;;5094505;28;20160;-81
2021/11/09 15:04:25;;;;;;;20.03;8.53;;;16.50;1.00;;;;;;5069378;28;20171;-80
2021/11/09 15:12:25;;;;;;;23.47;8.67;;;16.90;99.90;;;;;;5078780;28;20181;-82
2021/11/09 15:31:22;;;;;;;23.77;9.77;;;16.90;1.00;;;;;;5090278;28;20215;-82
2021/11/09 15:33:50;;;;;;;22.67;10.70;;;16.80;99.90;;;;;;5098276;28;20163;-83
2021/11/09 15:38:46;;;;;;;19.73;10.00;;;16.00;99.90;;;;;;5090649;28;20169;-83
2021/11/09 15:41:12;;;;;;;22.60;9.33;;;16.10;1.00;;;;;;5092175;28;20176;-81
2021/11/09 15:43:39;;;;;;;24.30;9.80;;;16.10;1.00;;;;;;5085883;28;20211;-80
2021/11/09 15:46:07;;;;;;;25.60;9.63;;;16.00;37.80;;;;;;5079103;28;20175;-81
2021/11/09 15:48:38;;;;;;;22.97;10.17;;;15.90;1.00;;;;;;5059233;28;20165;-81
2021/11/09 15:51:04;;;;;;;19.93;10.33;;;15.60;99.90;;;;;;5086163;28;20232;-79
2021/11/09 15:53:31;;;;;;;18.87;10.03;;;15.40;1.00;;;;;;5097109;28;20163;-80
2021/11/09 15:55:58;;;;;;;24.90;10.77;;;15.00;64.60;;;;;;5076127;28;20168;-81
2021/11/09 15:58:25;;;;;;;21.13;9.50;;;14.70;99.90;;;;;;5059604;28;20183;-82
2021/11/09 16:00:52;;;;;;;22.57;9.90;;;14.40;99.90;;;;;;5059435;28;20210;-82
2021/11/09 16:03:18;;;;;;;25.67;10.07;;;14.30;99.90;;;;;;5087484;28;20631;-82
2021/11/09 16:05:47;;;;;;;19.87;9.30;;;14.00;1.00;;;;;;5099082;28;20253;-80
2021/11/09 16:08:14;;;;;;;23.33;9.40;;;14.00;1.00;;;;;;5068878;28;20199;-83
2021/11/09 16:10:40;;;;;;;21.73;9.07;;;14.00;1.00;;;;;;5050843;28;20671;-82